sensor_id;sensor_type;location;lat;lon;timestamp;P1;durP1;ratioP1;P2;durP2;ratioP2
18857;SDS011;9558;50.178;8.370;2022-12-17T00:00:29;4.97;;;1.58;;
18857;SDS011;9558;50.178;8.370;2022-12-17T00:03:14;0.22;;;0.22;;
18857;SDS011;9558;50.178;8.370;2022-12-17T00:05:58;3.38;;;3.05;;
18857;SDS011;9558;50.178;8.370;2022-12-17T00:08:43;1.42;;;0.85;;
18857;SDS011;9558;50.178;8.370;2022-12-17T00:11:28;1.90;;;1.52;;
18857;SDS011;9558;50.178;8.370;2022-12-17T00:14:12;1.30;;;0.45;;
18857;SDS011;9558;50.178;8.370;2022-12-17T00:16:56;1.52;;;1.42;;
18857;SDS011;9558;50.178;8.370;2022-12-17T00:19:52;1.25;;;1.20;;
18857;SDS011;9558;50.178;8.370;2022-12-17T00:22:36;1.13;;;1.05;;
18857;SDS011;9558;50.178;8.370;2022-12-17T00:25:21;0.28;;;0.28;;
18857;SDS011;9558;50.178;8.370;2022-12-17T00:28:08;1.13;;;0.55;;
18857;SDS011;9558;50.178;8.370;2022-12-17T00:30:52;2.20;;;2.00;;
18857;SDS011;9558;50.178;8.370;2022-12-17T00:33:36;0.80;;;0.80;;
18857;SDS011;9558;50.178;8.370;2022-12-17T00:36:20;2.00;;;1.90;;
18857;SDS011;9558;50.178;8.370;2022-12-17T00:39:16;2.42;;;1.27;;
18857;SDS011;9558;50.178;8.370;2022-12-17T00:42:01;0.93;;;0.63;;
18857;SDS011;9558;50.178;8.370;2022-12-17T00:44:44;2.28;;;1.20;;
18857;SDS011;9558;50.178;8.370;2022-12-17T00:47:27;3.95;;;1.80;;
18857;SDS011;9558;50.178;8.370;2022-12-17T00:50:11;2.20;;;2.00;;
18857;SDS011;9558;50.178;8.370;2022-12-17T00:52:55;0.82;;;0.43;;
18857;SDS011;9558;50.178;8.370;2022-12-17T00:55:39;0.20;;;0.20;;
18857;SDS011;9558;50.178;8.370;2022-12-17T00:58:25;5.50;;;1.33;;
18857;SDS011;9558;50.178;8.370;2022-12-17T01:01:10;0.95;;;0.77;;
18857;SDS011;9558;50.178;8.370;2022-12-17T01:03:57;0.55;;;0.55;;
18857;SDS011;9558;50.178;8.370;2022-12-17T01:06:41;0.90;;;0.85;;
18857;SDS011;9558;50.178;8.370;2022-12-17T01:09:25;0.50;;;0.50;;
18857;SDS011;9558;50.178;8.370;2022-12-17T01:12:09;1.38;;;1.27;;
18857;SDS011;9558;50.178;8.370;2022-12-17T01:14:55;6.82;;;1.25;;
18857;SDS011;9558;50.178;8.370;2022-12-17T01:17:38;1.75;;;0.47;;
18857;SDS011;9558;50.178;8.370;2022-12-17T01:20:22;1.50;;;1.35;;
18857;SDS011;9558;50.178;8.370;2022-12-17T01:23:07;2.15;;;1.75;;
18857;SDS011;9558;50.178;8.370;2022-12-17T01:25:51;1.50;;;1.40;;
18857;SDS011;9558;50.178;8.370;2022-12-17T01:28:36;0.70;;;0.63;;
18857;SDS011;9558;50.178;8.370;2022-12-17T01:31:21;2.75;;;1.13;;
18857;SDS011;9558;50.178;8.370;2022-12-17T01:34:14;0.80;;;0.38;;
18857;SDS011;9558;50.178;8.370;2022-12-17T01:37:00;0.30;;;0.30;;
18857;SDS011;9558;50.178;8.370;2022-12-17T01:39:56;5.13;;;1.23;;
18857;SDS011;9558;50.178;8.370;2022-12-17T01:42:41;1.17;;;0.82;;
18857;SDS011;9558;50.178;8.370;2022-12-17T01:45:27;0.65;;;0.55;;
18857;SDS011;9558;50.178;8.370;2022-12-17T01:48:18;1.95;;;1.05;;
18857;SDS011;9558;50.178;8.370;2022-12-17T01:51:06;0.40;;;0.40;;
18857;SDS011;9558;50.178;8.370;2022-12-17T01:53:51;0.38;;;0.38;;
18857;SDS011;9558;50.178;8.370;2022-12-17T01:56:37;1.02;;;0.77;;
18857;SDS011;9558;50.178;8.370;2022-12-17T01:59:24;0.98;;;0.80;;
18857;SDS011;9558;50.178;8.370;2022-12-17T02:02:15;1.27;;;0.85;;
18857;SDS011;9558;50.178;8.370;2022-12-17T02:05:00;1.95;;;0.45;;
18857;SDS011;9558;50.178;8.370;2022-12-17T02:07:48;0.38;;;0.38;;
18857;SDS011;9558;50.178;8.370;2022-12-17T02:10:43;0.13;;;0.10;;
18857;SDS011;9558;50.178;8.370;2022-12-17T02:13:32;2.63;;;2.35;;
18857;SDS011;9558;50.178;8.370;2022-12-17T02:16:20;0.70;;;0.55;;
18857;SDS011;9558;50.178;8.370;2022-12-17T02:19:15;0.93;;;0.93;;
18857;SDS011;9558;50.178;8.370;2022-12-17T02:22:13;0.22;;;0.22;;
18857;SDS011;9558;50.178;8.370;2022-12-17T02:25:11;3.42;;;1.20;;
18857;SDS011;9558;50.178;8.370;2022-12-17T02:28:02;3.10;;;0.88;;
18857;SDS011;9558;50.178;8.370;2022-12-17T02:30:46;0.82;;;0.73;;
18857;SDS011;9558;50.178;8.370;2022-12-17T02:33:30;1.05;;;0.95;;
18857;SDS011;9558;50.178;8.370;2022-12-17T02:36:15;6.88;;;1.00;;
18857;SDS011;9558;50.178;8.370;2022-12-17T02:38:59;1.00;;;1.00;;
18857;SDS011;9558;50.178;8.370;2022-12-17T02:41:45;1.55;;;0.30;;
18857;SDS011;9558;50.178;8.370;2022-12-17T02:44:32;0.10;;;0.10;;
18857;SDS011;9558;50.178;8.370;2022-12-17T02:47:18;0.10;;;0.10;;
18857;SDS011;9558;50.178;8.370;2022-12-17T02:50:03;1.20;;;1.20;;
18857;SDS011;9558;50.178;8.370;2022-12-17T02:52:49;0.43;;;0.43;;
18857;SDS011;9558;50.178;8.370;2022-12-17T02:55:34;0.10;;;0.10;;
18857;SDS011;9558;50.178;8.370;2022-12-17T02:58:18;2.03;;;1.23;;
18857;SDS011;9558;50.178;8.370;2022-12-17T03:01:04;0.93;;;0.88;;
18857;SDS011;9558;50.178;8.370;2022-12-17T03:03:48;0.45;;;0.22;;
18857;SDS011;9558;50.178;8.370;2022-12-17T03:06:32;0.38;;;0.38;;
18857;SDS011;9558;50.178;8.370;2022-12-17T03:09:16;3.33;;;1.63;;
18857;SDS011;9558;50.178;8.370;2022-12-17T03:12:01;9.55;;;0.75;;
18857;SDS011;9558;50.178;8.370;2022-12-17T03:14:45;0.28;;;0.25;;
18857;SDS011;9558;50.178;8.370;2022-12-17T03:17:27;1.08;;;0.98;;
18857;SDS011;9558;50.178;8.370;2022-12-17T03:20:11;0.75;;;0.75;;
18857;SDS011;9558;50.178;8.370;2022-12-17T03:23:00;1.30;;;1.10;;
18857;SDS011;9558;50.178;8.370;2022-12-17T03:25:44;0.70;;;0.30;;
18857;SDS011;9558;50.178;8.370;2022-12-17T03:28:34;4.70;;;0.55;;
18857;SDS011;9558;50.178;8.370;2022-12-17T03:31:18;1.45;;;1.25;;
18857;SDS011;9558;50.178;8.370;2022-12-17T03:34:04;0.90;;;0.38;;
18857;SDS011;9558;50.178;8.370;2022-12-17T03:36:48;0.10;;;0.10;;
18857;SDS011;9558;50.178;8.370;2022-12-17T03:39:32;0.63;;;0.63;;
18857;SDS011;9558;50.178;8.370;2022-12-17T03:42:17;0.35;;;0.35;;
18857;SDS011;9558;50.178;8.370;2022-12-17T03:45:01;1.15;;;0.70;;
18857;SDS011;9558;50.178;8.370;2022-12-17T03:47:45;0.95;;;0.95;;
18857;SDS011;9558;50.178;8.370;2022-12-17T03:50:30;4.05;;;1.30;;
18857;SDS011;9558;50.178;8.370;2022-12-17T03:53:14;0.55;;;0.55;;
18857;SDS011;9558;50.178;8.370;2022-12-17T03:55:58;1.88;;;1.42;;
18857;SDS011;9558;50.178;8.370;2022-12-17T03:58:42;1.60;;;1.50;;
18857;SDS011;9558;50.178;8.370;2022-12-17T04:01:23;1.45;;;0.55;;
18857;SDS011;9558;50.178;8.370;2022-12-17T04:04:07;0.40;;;0.40;;
18857;SDS011;9558;50.178;8.370;2022-12-17T04:06:52;0.55;;;0.47;;
18857;SDS011;9558;50.178;8.370;2022-12-17T04:09:36;2.30;;;1.27;;
18857;SDS011;9558;50.178;8.370;2022-12-17T04:12:20;1.55;;;0.57;;
18857;SDS011;9558;50.178;8.370;2022-12-17T04:15:05;0.57;;;0.57;;
18857;SDS011;9558;50.178;8.370;2022-12-17T04:17:50;1.25;;;0.52;;
18857;SDS011;9558;50.178;8.370;2022-12-17T04:20:34;0.98;;;0.95;;
18857;SDS011;9558;50.178;8.370;2022-12-17T04:23:19;3.38;;;1.40;;
18857;SDS011;9558;50.178;8.370;2022-12-17T04:26:03;0.30;;;0.30;;
18857;SDS011;9558;50.178;8.370;2022-12-17T04:28:47;0.20;;;0.20;;
18857;SDS011;9558;50.178;8.370;2022-12-17T04:31:31;1.27;;;1.20;;
18857;SDS011;9558;50.178;8.370;2022-12-17T04:34:15;0.82;;;0.35;;
18857;SDS011;9558;50.178;8.370;2022-12-17T04:36:59;1.48;;;0.73;;
18857;SDS011;9558;50.178;8.370;2022-12-17T04:39:44;0.55;;;0.55;;
18857;SDS011;9558;50.178;8.370;2022-12-17T04:42:28;4.00;;;1.17;;
18857;SDS011;9558;50.178;8.370;2022-12-17T04:45:12;5.70;;;1.23;;
18857;SDS011;9558;50.178;8.370;2022-12-17T04:48:00;0.20;;;0.20;;
18857;SDS011;9558;50.178;8.370;2022-12-17T04:50:45;0.70;;;0.70;;
18857;SDS011;9558;50.178;8.370;2022-12-17T04:53:29;0.22;;;0.20;;
18857;SDS011;9558;50.178;8.370;2022-12-17T04:56:18;3.20;;;0.88;;
18857;SDS011;9558;50.178;8.370;2022-12-17T04:59:02;1.55;;;0.60;;
18857;SDS011;9558;50.178;8.370;2022-12-17T05:01:46;1.08;;;1.05;;
18857;SDS011;9558;50.178;8.370;2022-12-17T05:04:33;0.70;;;0.40;;
18857;SDS011;9558;50.178;8.370;2022-12-17T05:07:16;1.10;;;1.05;;
18857;SDS011;9558;50.178;8.370;2022-12-17T05:10:00;0.60;;;0.47;;
18857;SDS011;9558;50.178;8.370;2022-12-17T05:12:46;2.10;;;1.77;;
18857;SDS011;9558;50.178;8.370;2022-12-17T05:15:30;4.97;;;0.77;;
18857;SDS011;9558;50.178;8.370;2022-12-17T05:18:14;0.38;;;0.38;;
18857;SDS011;9558;50.178;8.370;2022-12-17T05:20:58;0.98;;;0.93;;
18857;SDS011;9558;50.178;8.370;2022-12-17T05:23:42;2.08;;;0.75;;
18857;SDS011;9558;50.178;8.370;2022-12-17T05:26:27;0.28;;;0.28;;
18857;SDS011;9558;50.178;8.370;2022-12-17T05:29:12;0.55;;;0.55;;
18857;SDS011;9558;50.178;8.370;2022-12-17T05:31:57;0.60;;;0.50;;
18857;SDS011;9558;50.178;8.370;2022-12-17T05:34:41;0.32;;;0.32;;
18857;SDS011;9558;50.178;8.370;2022-12-17T05:37:25;0.30;;;0.30;;
18857;SDS011;9558;50.178;8.370;2022-12-17T05:40:10;0.63;;;0.43;;
18857;SDS011;9558;50.178;8.370;2022-12-17T05:42:55;0.20;;;0.20;;
18857;SDS011;9558;50.178;8.370;2022-12-17T05:45:41;1.77;;;1.13;;
18857;SDS011;9558;50.178;8.370;2022-12-17T05:48:26;0.55;;;0.50;;
18857;SDS011;9558;50.178;8.370;2022-12-17T05:51:10;0.35;;;0.35;;
18857;SDS011;9558;50.178;8.370;2022-12-17T05:53:54;0.50;;;0.50;;
18857;SDS011;9558;50.178;8.370;2022-12-17T05:56:38;0.32;;;0.32;;
18857;SDS011;9558;50.178;8.370;2022-12-17T05:59:22;1.35;;;1.15;;
18857;SDS011;9558;50.178;8.370;2022-12-17T06:02:08;0.75;;;0.40;;
18857;SDS011;9558;50.178;8.370;2022-12-17T06:04:52;0.05;;;0.00;;
18857;SDS011;9558;50.178;8.370;2022-12-17T06:07:32;0.68;;;0.68;;
18857;SDS011;9558;50.178;8.370;2022-12-17T06:10:16;0.93;;;0.93;;
18857;SDS011;9558;50.178;8.370;2022-12-17T06:13:00;0.40;;;0.22;;
18857;SDS011;9558;50.178;8.370;2022-12-17T06:15:47;0.10;;;0.10;;
18857;SDS011;9558;50.178;8.370;2022-12-17T06:18:32;0.90;;;0.52;;
18857;SDS011;9558;50.178;8.370;2022-12-17T06:21:16;0.40;;;0.40;;
18857;SDS011;9558;50.178;8.370;2022-12-17T06:24:06;0.52;;;0.38;;
18857;SDS011;9558;50.178;8.370;2022-12-17T06:26:50;1.20;;;1.10;;
18857;SDS011;9558;50.178;8.370;2022-12-17T06:29:34;2.22;;;1.45;;
18857;SDS011;9558;50.178;8.370;2022-12-17T06:32:30;0.70;;;0.47;;
18857;SDS011;9558;50.178;8.370;2022-12-17T06:35:16;3.85;;;1.98;;
18857;SDS011;9558;50.178;8.370;2022-12-17T06:38:00;0.70;;;0.70;;
18857;SDS011;9558;50.178;8.370;2022-12-17T06:40:45;1.15;;;1.05;;
18857;SDS011;9558;50.178;8.370;2022-12-17T06:43:29;0.28;;;0.28;;
18857;SDS011;9558;50.178;8.370;2022-12-17T06:46:13;0.45;;;0.45;;
18857;SDS011;9558;50.178;8.370;2022-12-17T06:48:54;1.17;;;0.60;;
18857;SDS011;9558;50.178;8.370;2022-12-17T06:51:39;0.03;;;0.03;;
18857;SDS011;9558;50.178;8.370;2022-12-17T06:54:23;8.88;;;1.75;;
18857;SDS011;9558;50.178;8.370;2022-12-17T06:57:07;0.55;;;0.52;;
18857;SDS011;9558;50.178;8.370;2022-12-17T06:59:52;0.32;;;0.32;;
18857;SDS011;9558;50.178;8.370;2022-12-17T07:02:36;1.05;;;0.47;;
18857;SDS011;9558;50.178;8.370;2022-12-17T07:05:20;1.00;;;0.95;;
18857;SDS011;9558;50.178;8.370;2022-12-17T07:08:05;0.80;;;0.40;;
18857;SDS011;9558;50.178;8.370;2022-12-17T07:10:50;1.00;;;0.95;;
18857;SDS011;9558;50.178;8.370;2022-12-17T07:13:45;1.00;;;0.95;;
18857;SDS011;9558;50.178;8.370;2022-12-17T07:16:31;0.00;;;0.00;;
18857;SDS011;9558;50.178;8.370;2022-12-17T07:19:15;0.55;;;0.55;;
18857;SDS011;9558;50.178;8.370;2022-12-17T07:21:59;0.10;;;0.10;;
18857;SDS011;9558;50.178;8.370;2022-12-17T07:24:45;1.20;;;1.08;;
18857;SDS011;9558;50.178;8.370;2022-12-17T07:27:29;2.75;;;1.15;;
18857;SDS011;9558;50.178;8.370;2022-12-17T07:30:27;3.00;;;1.60;;
18857;SDS011;9558;50.178;8.370;2022-12-17T07:33:12;0.40;;;0.40;;
18857;SDS011;9558;50.178;8.370;2022-12-17T07:35:55;1.77;;;0.95;;
18857;SDS011;9558;50.178;8.370;2022-12-17T07:38:40;2.30;;;1.17;;
18857;SDS011;9558;50.178;8.370;2022-12-17T07:41:25;0.17;;;0.17;;
18857;SDS011;9558;50.178;8.370;2022-12-17T07:44:09;0.80;;;0.80;;
18857;SDS011;9558;50.178;8.370;2022-12-17T07:46:53;4.90;;;1.02;;
18857;SDS011;9558;50.178;8.370;2022-12-17T07:49:38;0.43;;;0.43;;
18857;SDS011;9558;50.178;8.370;2022-12-17T07:52:22;1.90;;;1.80;;
18857;SDS011;9558;50.178;8.370;2022-12-17T07:55:20;1.08;;;1.05;;
18857;SDS011;9558;50.178;8.370;2022-12-17T07:58:08;0.10;;;0.10;;
18857;SDS011;9558;50.178;8.370;2022-12-17T08:00:54;0.75;;;0.63;;
18857;SDS011;9558;50.178;8.370;2022-12-17T08:03:39;0.22;;;0.22;;
18857;SDS011;9558;50.178;8.370;2022-12-17T08:06:23;0.90;;;0.50;;
18857;SDS011;9558;50.178;8.370;2022-12-17T08:09:07;0.40;;;0.40;;
18857;SDS011;9558;50.178;8.370;2022-12-17T08:11:51;0.15;;;0.15;;
18857;SDS011;9558;50.178;8.370;2022-12-17T08:14:36;1.50;;;1.40;;
18857;SDS011;9558;50.178;8.370;2022-12-17T08:17:20;0.28;;;0.28;;
18857;SDS011;9558;50.178;8.370;2022-12-17T08:20:05;0.75;;;0.75;;
18857;SDS011;9558;50.178;8.370;2022-12-17T08:22:49;1.35;;;1.25;;
18857;SDS011;9558;50.178;8.370;2022-12-17T08:25:34;0.70;;;0.70;;
18857;SDS011;9558;50.178;8.370;2022-12-17T08:28:18;0.73;;;0.68;;
18857;SDS011;9558;50.178;8.370;2022-12-17T08:31:03;0.32;;;0.22;;
18857;SDS011;9558;50.178;8.370;2022-12-17T08:33:47;7.47;;;1.70;;
18857;SDS011;9558;50.178;8.370;2022-12-17T08:36:31;4.97;;;2.13;;
18857;SDS011;9558;50.178;8.370;2022-12-17T08:39:15;4.03;;;2.58;;
18857;SDS011;9558;50.178;8.370;2022-12-17T08:42:14;2.05;;;1.75;;
18857;SDS011;9558;50.178;8.370;2022-12-17T08:44:59;1.17;;;1.00;;
18857;SDS011;9558;50.178;8.370;2022-12-17T08:47:44;0.43;;;0.28;;
18857;SDS011;9558;50.178;8.370;2022-12-17T08:50:28;3.22;;;2.15;;
18857;SDS011;9558;50.178;8.370;2022-12-17T08:53:12;0.20;;;0.20;;
18857;SDS011;9558;50.178;8.370;2022-12-17T08:55:56;0.22;;;0.22;;
18857;SDS011;9558;50.178;8.370;2022-12-17T08:58:41;0.77;;;0.77;;
18857;SDS011;9558;50.178;8.370;2022-12-17T09:01:25;1.15;;;1.05;;
18857;SDS011;9558;50.178;8.370;2022-12-17T09:04:10;0.60;;;0.60;;
18857;SDS011;9558;50.178;8.370;2022-12-17T09:06:54;1.17;;;1.08;;
18857;SDS011;9558;50.178;8.370;2022-12-17T09:09:34;1.70;;;1.05;;
18857;SDS011;9558;50.178;8.370;2022-12-17T09:12:18;6.32;;;1.73;;
18857;SDS011;9558;50.178;8.370;2022-12-17T09:15:03;2.00;;;1.13;;
18857;SDS011;9558;50.178;8.370;2022-12-17T09:17:49;0.47;;;0.47;;
18857;SDS011;9558;50.178;8.370;2022-12-17T09:20:35;0.80;;;0.80;;
18857;SDS011;9558;50.178;8.370;2022-12-17T09:23:19;5.28;;;0.88;;
18857;SDS011;9558;50.178;8.370;2022-12-17T09:26:04;0.70;;;0.70;;
18857;SDS011;9558;50.178;8.370;2022-12-17T09:28:48;0.45;;;0.22;;
18857;SDS011;9558;50.178;8.370;2022-12-17T09:31:32;1.35;;;1.25;;
18857;SDS011;9558;50.178;8.370;2022-12-17T09:34:16;0.82;;;0.43;;
18857;SDS011;9558;50.178;8.370;2022-12-17T09:37:02;2.78;;;2.35;;
18857;SDS011;9558;50.178;8.370;2022-12-17T09:39:46;4.80;;;1.35;;
18857;SDS011;9558;50.178;8.370;2022-12-17T09:42:30;2.20;;;2.03;;
18857;SDS011;9558;50.178;8.370;2022-12-17T09:45:21;2.08;;;1.13;;
18857;SDS011;9558;50.178;8.370;2022-12-17T09:48:11;1.38;;;1.23;;
18857;SDS011;9558;50.178;8.370;2022-12-17T09:50:59;1.38;;;0.77;;
18857;SDS011;9558;50.178;8.370;2022-12-17T09:53:46;0.93;;;0.93;;
18857;SDS011;9558;50.178;8.370;2022-12-17T09:56:36;1.58;;;1.48;;
18857;SDS011;9558;50.178;8.370;2022-12-17T09:59:22;0.50;;;0.40;;
18857;SDS011;9558;50.178;8.370;2022-12-17T10:02:12;1.95;;;1.85;;
18857;SDS011;9558;50.178;8.370;2022-12-17T10:04:59;2.88;;;2.17;;
18857;SDS011;9558;50.178;8.370;2022-12-17T10:07:45;2.80;;;2.53;;
18857;SDS011;9558;50.178;8.370;2022-12-17T10:10:31;3.83;;;2.42;;
18857;SDS011;9558;50.178;8.370;2022-12-17T10:13:16;2.10;;;0.95;;
18857;SDS011;9558;50.178;8.370;2022-12-17T10:16:07;4.15;;;2.78;;
18857;SDS011;9558;50.178;8.370;2022-12-17T10:19:01;3.28;;;2.30;;
18857;SDS011;9558;50.178;8.370;2022-12-17T10:21:46;4.15;;;1.70;;
18857;SDS011;9558;50.178;8.370;2022-12-17T10:24:42;1.38;;;1.13;;
18857;SDS011;9558;50.178;8.370;2022-12-17T10:27:28;8.07;;;3.08;;
18857;SDS011;9558;50.178;8.370;2022-12-17T10:30:13;2.95;;;1.67;;
18857;SDS011;9558;50.178;8.370;2022-12-17T10:32:58;1.33;;;1.23;;
18857;SDS011;9558;50.178;8.370;2022-12-17T10:35:47;1.88;;;1.50;;
18857;SDS011;9558;50.178;8.370;2022-12-17T10:38:31;1.58;;;1.05;;
18857;SDS011;9558;50.178;8.370;2022-12-17T10:41:19;2.53;;;2.22;;
18857;SDS011;9558;50.178;8.370;2022-12-17T10:44:20;1.40;;;1.27;;
18857;SDS011;9558;50.178;8.370;2022-12-17T10:47:08;0.63;;;0.60;;
18857;SDS011;9558;50.178;8.370;2022-12-17T10:49:58;3.05;;;1.77;;
18857;SDS011;9558;50.178;8.370;2022-12-17T10:52:43;1.67;;;1.38;;
18857;SDS011;9558;50.178;8.370;2022-12-17T10:55:28;0.90;;;0.90;;
18857;SDS011;9558;50.178;8.370;2022-12-17T10:58:15;1.27;;;1.17;;
18857;SDS011;9558;50.178;8.370;2022-12-17T11:01:04;0.90;;;0.80;;
18857;SDS011;9558;50.178;8.370;2022-12-17T11:03:52;4.55;;;1.75;;
18857;SDS011;9558;50.178;8.370;2022-12-17T11:06:39;1.85;;;1.02;;
18857;SDS011;9558;50.178;8.370;2022-12-17T11:09:29;3.15;;;1.27;;
18857;SDS011;9558;50.178;8.370;2022-12-17T11:12:19;4.10;;;2.25;;
18857;SDS011;9558;50.178;8.370;2022-12-17T11:15:13;3.72;;;1.30;;
18857;SDS011;9558;50.178;8.370;2022-12-17T11:18:02;1.05;;;1.05;;
18857;SDS011;9558;50.178;8.370;2022-12-17T11:20:49;0.68;;;0.68;;
18857;SDS011;9558;50.178;8.370;2022-12-17T11:23:40;2.55;;;1.25;;
18857;SDS011;9558;50.178;8.370;2022-12-17T11:26:29;0.65;;;0.65;;
18857;SDS011;9558;50.178;8.370;2022-12-17T11:29:21;4.45;;;2.42;;
18857;SDS011;9558;50.178;8.370;2022-12-17T11:35:27;4.22;;;2.35;;
18857;SDS011;9558;50.178;8.370;2022-12-17T11:38:21;4.70;;;1.88;;
18857;SDS011;9558;50.178;8.370;2022-12-17T11:41:13;1.60;;;1.48;;
18857;SDS011;9558;50.178;8.370;2022-12-17T11:44:03;2.47;;;2.28;;
18857;SDS011;9558;50.178;8.370;2022-12-17T11:46:57;2.72;;;2.47;;
18857;SDS011;9558;50.178;8.370;2022-12-17T11:52:41;0.75;;;0.75;;
18857;SDS011;9558;50.178;8.370;2022-12-17T11:55:33;2.20;;;1.10;;
18857;SDS011;9558;50.178;8.370;2022-12-17T11:58:25;4.60;;;1.83;;
18857;SDS011;9558;50.178;8.370;2022-12-17T12:01:24;2.72;;;2.15;;
18857;SDS011;9558;50.178;8.370;2022-12-17T12:04:16;1.42;;;1.33;;
18857;SDS011;9558;50.178;8.370;2022-12-17T12:07:13;1.60;;;1.45;;
18857;SDS011;9558;50.178;8.370;2022-12-17T12:10:07;2.10;;;1.38;;
18857;SDS011;9558;50.178;8.370;2022-12-17T12:13:00;1.38;;;1.27;;
18857;SDS011;9558;50.178;8.370;2022-12-17T12:15:55;1.73;;;1.58;;
18857;SDS011;9558;50.178;8.370;2022-12-17T12:18:48;2.13;;;1.83;;
18857;SDS011;9558;50.178;8.370;2022-12-17T12:21:38;1.77;;;1.38;;
18857;SDS011;9558;50.178;8.370;2022-12-17T12:24:40;3.22;;;1.13;;
18857;SDS011;9558;50.178;8.370;2022-12-17T12:27:48;2.55;;;1.45;;
18857;SDS011;9558;50.178;8.370;2022-12-17T12:30:39;2.45;;;1.77;;
18857;SDS011;9558;50.178;8.370;2022-12-17T12:33:34;5.60;;;1.92;;
18857;SDS011;9558;50.178;8.370;2022-12-17T12:36:20;1.80;;;1.70;;
18857;SDS011;9558;50.178;8.370;2022-12-17T12:39:08;1.67;;;1.13;;
18857;SDS011;9558;50.178;8.370;2022-12-17T12:41:56;3.88;;;2.08;;
18857;SDS011;9558;50.178;8.370;2022-12-17T12:44:48;5.70;;;2.92;;
18857;SDS011;9558;50.178;8.370;2022-12-17T12:47:50;1.88;;;1.60;;
18857;SDS011;9558;50.178;8.370;2022-12-17T12:50:41;4.85;;;4.13;;
18857;SDS011;9558;50.178;8.370;2022-12-17T12:53:33;3.30;;;1.85;;
18857;SDS011;9558;50.178;8.370;2022-12-17T12:56:24;2.90;;;2.60;;
18857;SDS011;9558;50.178;8.370;2022-12-17T12:59:10;1.67;;;1.48;;
18857;SDS011;9558;50.178;8.370;2022-12-17T13:01:53;2.35;;;2.03;;
18857;SDS011;9558;50.178;8.370;2022-12-17T13:04:37;2.38;;;2.17;;
18857;SDS011;9558;50.178;8.370;2022-12-17T13:07:22;3.05;;;2.22;;
18857;SDS011;9558;50.178;8.370;2022-12-17T13:09:52;6.88;;;2.13;;
18857;SDS011;9558;50.178;8.370;2022-12-17T13:12:25;3.30;;;1.63;;
18857;SDS011;9558;50.178;8.370;2022-12-17T13:15:12;5.07;;;1.55;;
18857;SDS011;9558;50.178;8.370;2022-12-17T13:17:54;3.60;;;2.78;;
18857;SDS011;9558;50.178;8.370;2022-12-17T13:20:26;3.28;;;2.30;;
18857;SDS011;9558;50.178;8.370;2022-12-17T13:25:52;3.50;;;2.05;;
18857;SDS011;9558;50.178;8.370;2022-12-17T13:28:42;1.55;;;1.42;;
18857;SDS011;9558;50.178;8.370;2022-12-17T13:31:17;3.03;;;2.22;;
18857;SDS011;9558;50.178;8.370;2022-12-17T13:33:48;4.57;;;1.67;;
18857;SDS011;9558;50.178;8.370;2022-12-17T13:36:23;10.90;;;3.33;;
18857;SDS011;9558;50.178;8.370;2022-12-17T13:38:59;8.77;;;2.40;;
18857;SDS011;9558;50.178;8.370;2022-12-17T13:41:31;5.72;;;2.75;;
18857;SDS011;9558;50.178;8.370;2022-12-17T13:44:00;3.22;;;2.00;;
18857;SDS011;9558;50.178;8.370;2022-12-17T13:46:34;6.47;;;4.03;;
18857;SDS011;9558;50.178;8.370;2022-12-17T13:49:14;3.72;;;2.72;;
18857;SDS011;9558;50.178;8.370;2022-12-17T13:51:42;3.58;;;2.55;;
18857;SDS011;9558;50.178;8.370;2022-12-17T13:54:11;9.07;;;3.78;;
18857;SDS011;9558;50.178;8.370;2022-12-17T13:56:41;3.58;;;3.13;;
18857;SDS011;9558;50.178;8.370;2022-12-17T13:59:14;6.70;;;2.33;;
18857;SDS011;9558;50.178;8.370;2022-12-17T14:01:44;2.80;;;2.60;;
18857;SDS011;9558;50.178;8.370;2022-12-17T14:04:20;4.32;;;2.78;;
18857;SDS011;9558;50.178;8.370;2022-12-17T14:06:48;2.25;;;1.77;;
18857;SDS011;9558;50.178;8.370;2022-12-17T14:09:18;4.40;;;2.25;;
18857;SDS011;9558;50.178;8.370;2022-12-17T14:11:46;3.38;;;2.17;;
18857;SDS011;9558;50.178;8.370;2022-12-17T14:14:31;6.18;;;2.75;;
18857;SDS011;9558;50.178;8.370;2022-12-17T14:16:59;4.22;;;2.67;;
18857;SDS011;9558;50.178;8.370;2022-12-17T14:19:27;3.88;;;2.58;;
18857;SDS011;9558;50.178;8.370;2022-12-17T14:21:57;4.57;;;2.42;;
18857;SDS011;9558;50.178;8.370;2022-12-17T14:24:25;4.22;;;2.53;;
18857;SDS011;9558;50.178;8.370;2022-12-17T14:26:54;3.78;;;2.45;;
18857;SDS011;9558;50.178;8.370;2022-12-17T14:29:23;2.65;;;2.42;;
18857;SDS011;9558;50.178;8.370;2022-12-17T14:31:51;3.55;;;2.60;;
18857;SDS011;9558;50.178;8.370;2022-12-17T14:34:19;4.50;;;3.58;;
18857;SDS011;9558;50.178;8.370;2022-12-17T14:36:51;3.92;;;2.72;;
18857;SDS011;9558;50.178;8.370;2022-12-17T14:39:22;7.55;;;3.08;;
18857;SDS011;9558;50.178;8.370;2022-12-17T14:41:50;3.95;;;3.65;;
18857;SDS011;9558;50.178;8.370;2022-12-17T14:44:36;4.47;;;3.42;;
18857;SDS011;9558;50.178;8.370;2022-12-17T14:47:15;13.90;;;3.70;;
18857;SDS011;9558;50.178;8.370;2022-12-17T14:49:51;4.65;;;3.10;;
18857;SDS011;9558;50.178;8.370;2022-12-17T14:52:23;7.93;;;3.60;;
18857;SDS011;9558;50.178;8.370;2022-12-17T14:54:53;5.35;;;2.97;;
18857;SDS011;9558;50.178;8.370;2022-12-17T14:57:20;8.60;;;3.72;;
18857;SDS011;9558;50.178;8.370;2022-12-17T14:59:47;3.80;;;3.40;;
18857;SDS011;9558;50.178;8.370;2022-12-17T15:02:21;5.15;;;2.88;;
18857;SDS011;9558;50.178;8.370;2022-12-17T15:04:50;9.05;;;4.80;;
18857;SDS011;9558;50.178;8.370;2022-12-17T15:07:21;6.22;;;4.95;;
18857;SDS011;9558;50.178;8.370;2022-12-17T15:09:51;9.68;;;5.00;;
18857;SDS011;9558;50.178;8.370;2022-12-17T15:12:18;1.85;;;1.73;;
18857;SDS011;9558;50.178;8.370;2022-12-17T15:14:45;4.13;;;2.20;;
18857;SDS011;9558;50.178;8.370;2022-12-17T15:17:12;8.68;;;4.57;;
18857;SDS011;9558;50.178;8.370;2022-12-17T15:19:38;5.50;;;3.40;;
18857;SDS011;9558;50.178;8.370;2022-12-17T15:22:05;5.25;;;3.92;;
18857;SDS011;9558;50.178;8.370;2022-12-17T15:24:40;8.95;;;4.20;;
18857;SDS011;9558;50.178;8.370;2022-12-17T15:27:07;5.55;;;3.35;;
18857;SDS011;9558;50.178;8.370;2022-12-17T15:29:35;13.60;;;3.40;;
18857;SDS011;9558;50.178;8.370;2022-12-17T15:32:02;6.10;;;2.92;;
18857;SDS011;9558;50.178;8.370;2022-12-17T15:34:29;4.97;;;2.42;;
18857;SDS011;9558;50.178;8.370;2022-12-17T15:36:56;5.90;;;3.03;;
18857;SDS011;9558;50.178;8.370;2022-12-17T15:39:22;4.57;;;2.78;;
18857;SDS011;9558;50.178;8.370;2022-12-17T15:41:50;2.72;;;2.50;;
18857;SDS011;9558;50.178;8.370;2022-12-17T15:44:34;6.90;;;4.20;;
18857;SDS011;9558;50.178;8.370;2022-12-17T15:47:00;7.55;;;3.20;;
18857;SDS011;9558;50.178;8.370;2022-12-17T15:49:27;6.50;;;4.35;;
18857;SDS011;9558;50.178;8.370;2022-12-17T15:51:53;2.13;;;1.83;;
18857;SDS011;9558;50.178;8.370;2022-12-17T15:54:20;2.92;;;2.22;;
18857;SDS011;9558;50.178;8.370;2022-12-17T15:56:51;7.95;;;4.32;;
18857;SDS011;9558;50.178;8.370;2022-12-17T15:59:20;9.98;;;4.10;;
18857;SDS011;9558;50.178;8.370;2022-12-17T16:01:46;4.53;;;3.72;;
18857;SDS011;9558;50.178;8.370;2022-12-17T16:04:13;3.97;;;2.95;;
18857;SDS011;9558;50.178;8.370;2022-12-17T16:06:39;3.55;;;3.25;;
18857;SDS011;9558;50.178;8.370;2022-12-17T16:09:06;3.80;;;3.42;;
18857;SDS011;9558;50.178;8.370;2022-12-17T16:11:32;5.15;;;4.28;;
18857;SDS011;9558;50.178;8.370;2022-12-17T16:14:00;7.05;;;4.20;;
18857;SDS011;9558;50.178;8.370;2022-12-17T16:16:27;3.78;;;3.15;;
18857;SDS011;9558;50.178;8.370;2022-12-17T16:18:54;4.57;;;3.08;;
18857;SDS011;9558;50.178;8.370;2022-12-17T16:21:21;3.92;;;2.95;;
18857;SDS011;9558;50.178;8.370;2022-12-17T16:23:48;5.30;;;4.80;;
18857;SDS011;9558;50.178;8.370;2022-12-17T16:26:14;7.82;;;3.30;;
18857;SDS011;9558;50.178;8.370;2022-12-17T16:28:41;5.53;;;3.70;;
18857;SDS011;9558;50.178;8.370;2022-12-17T16:31:09;5.07;;;3.72;;
18857;SDS011;9558;50.178;8.370;2022-12-17T16:33:37;4.47;;;1.73;;
18857;SDS011;9558;50.178;8.370;2022-12-17T16:36:06;4.00;;;3.25;;
18857;SDS011;9558;50.178;8.370;2022-12-17T16:38:40;9.35;;;3.67;;
18857;SDS011;9558;50.178;8.370;2022-12-17T16:41:08;5.70;;;4.20;;
18857;SDS011;9558;50.178;8.370;2022-12-17T16:43:34;4.85;;;3.92;;